Clark, Colorado
Current Conditions -  °F | °C
As of 10:55 PM on Saturday 22 Nov 2014 (Local Time) from KSBS Reporting Station
Overcast Overcast  
Wind Chill: 23°   Ceiling: 2000
Heat Index: 30°   Visibility: 4mi
Dew Point: 29°   Wind: 7mph
Humidity: 96%   Direction: 230°SW
Pressure: 29.75"   Gusts: NA
Location:  40.76°N, 106.94°W
Report Text: KSBS 230555Z AUTO 23006KT 4SM SCT008 OVC020 M01/M02 A2975 RMK AO1 T10101016 10002 21010
Loading
Personal Weather Stations






























Interactive Weather Map New forecast layout! Learn more

10-Day Weather Forecast

Advertisements
Track Severe Weather on mobile